Estación municipal de Queralbs (Ripollès, P.N.de les capçaleres del Ter i el Freser)

Consulta los datos en tiempo real de la estación municipal de Queralbs





Hora UTC 06:45
Temperatura 22.6 ºC
Humedad 40.2 %
Pluja 0.0 mm
Velocidad viento 2.1 km/h
Dirección viento NNE

Datos diarios 2026-09-06



Hora UTC (invierno +1h; verano +2h)
Temperatura (ºC) Humedad (%) Velocidad viento (km/h) Precipitación (mm)
Hora UTC Aire Humedad Vel. Dir. Vel. Max Dir. Intent. máx 5 min.
00:05 20.2 49.5 0.9 NNE 0.9 NE 0.0
00:10 20.2 50.0 1.3 W 2.8 W 0.0
00:15 20.2 49.7 0.7 WSW 2.8 WSW 0.0
00:20 20.0 51.1 0.2 SE 2.1 SE 0.0
00:25 19.9 50.3 0.0 NNE 0.0 SE 0.0
00:30 19.9 49.8 1.0 W 2.8 SE 0.0
00:35 19.9 49.7 0.1 WSW 1.4 SSE 0.0
00:40 20.1 49.6 0.3 WSW 1.8 WSW 0.0
00:45 20.1 49.4 0.0 NNW 1.1 N 0.0
00:50 20.2 49.1 0.9 S 2.8 SE 0.0
00:55 20.1 49.1 0.6 WNW 2.8 WNW 0.0
01:00 20.2 49.0 0.1 SSW 1.8 S 0.0
01:05 20.0 49.3 0.8 SSW 2.5 S 0.0
01:10 20.3 48.0 0.0 NNE 0.0 W 0.0
01:15 20.2 49.5 0.2 W 1.8 WNW 0.0
01:20 20.1 49.3 0.7 W 2.5 W 0.0
01:25 20.3 49.4 1.0 WSW 2.8 WSW 0.0
01:30 20.3 48.6 1.1 N 2.8 NNW 0.0
01:35 20.5 48.1 0.6 NW 3.5 NNW 0.0
01:40 20.3 48.1 0.5 NNE 2.5 NNW 0.0
01:45 20.3 48.1 2.0 NNW 4.2 NNW 0.0
01:50 20.2 49.7 0.0 SW 1.4 SSW 0.0
01:55 20.1 49.0 0.6 W 2.5 W 0.0
02:00 20.3 49.5 0.8 SW 2.5 SW 0.0
02:05 20.0 50.6 0.1 SW 1.8 SSW 0.0
02:10 20.0 50.0 0.0 NNE 0.0 WSW 0.0
02:15 20.0 49.9 0.1 WSW 1.4 WSW 0.0
02:20 19.9 49.6 0.3 NNW 2.5 WNW 0.0
02:25 20.1 49.4 0.8 NNW 3.2 NNW 0.0
02:30 20.0 49.4 0.3 SSE 2.1 S 0.0
02:35 20.2 48.9 0.0 NNE 0.0 SW 0.0
02:40 19.9 50.1 0.6 N 2.1 NNE 0.0
02:45 19.9 49.9 0.0 SSW 1.4 SSW 0.0
02:50 19.7 50.9 0.1 W 1.4 SSW 0.0
02:55 19.6 52.0 0.1 SW 1.4 SW 0.0
03:00 19.4 52.4 0.4 SSE 2.1 SSE 0.0
03:05 19.3 52.2 0.0 NNE 0.0 SW 0.0
03:10 19.2 52.4 0.0 NNE 0.0 WNW 0.0
03:15 19.2 52.1 0.0 NNE 0.0 W 0.0
03:20 19.3 52.0 0.0 NNE 0.0 SW 0.0
03:25 19.1 51.9 0.0 NNE 0.0 WSW 0.0
03:30 19.1 52.1 0.7 WSW 2.1 W 0.0
03:35 19.1 52.0 0.0 NNE 0.0 W 0.0
03:40 19.1 51.3 0.0 NNE 0.0 WSW 0.0
03:45 19.2 51.1 0.0 NNE 0.0 SW 0.0
03:50 19.2 50.1 0.0 NNE 0.0 WSW 0.0
03:55 19.5 48.8 0.0 NNE 0.0 NW 0.0
04:00 19.5 49.0 0.0 NNW 1.4 NNW 0.0
04:05 19.6 49.5 0.0 N 1.1 NNW 0.0
04:10 19.1 50.3 0.7 WSW 1.8 WSW 0.0
04:15 19.3 48.8 0.0 NNE 0.0 W 0.0
04:20 19.5 47.7 0.0 NNE 0.0 SSW 0.0
04:25 19.5 48.6 0.2 W 1.4 SW 0.0
04:30 19.4 48.7 0.1 SSW 2.1 S 0.0
04:35 19.2 48.7 1.4 SW 2.8 SSW 0.0
04:40 19.3 48.4 0.9 WSW 2.8 W 0.0
04:45 19.2 48.3 0.5 SE 2.8 NE 0.0
04:50 19.2 47.1 0.0 NNE 0.0 ESE 0.0
04:55 19.3 47.0 0.8 WSW 2.1 SW 0.0
05:00 19.5 46.2 0.1 SSW 1.4 WSW 0.0
05:05 19.5 45.0 0.0 NNE 0.0 SW 0.0
05:10 19.6 44.6 0.0 NNE 0.0 SW 0.0
05:15 19.9 44.3 0.4 NNW 2.1 NNW 0.0
05:20 19.6 45.2 0.7 SSW 3.2 SSW 0.0
05:25 19.6 45.3 0.3 NNW 1.8 NNW 0.0
05:30 19.8 44.1 1.3 W 3.5 WSW 0.0
05:35 19.7 44.6 1.0 SW 2.8 SW 0.0
05:40 19.6 46.1 0.2 WSW 2.5 WSW 0.0
05:45 19.4 45.5 0.3 SW 1.8 SW 0.0
05:50 19.8 44.5 1.5 WSW 3.2 WSW 0.0
05:55 19.9 44.8 0.5 WSW 2.1 WSW 0.0
06:00 20.2 43.8 0.2 NNE 2.1 NNE 0.0
06:05 20.4 43.3 1.0 NNE 2.8 N 0.0
06:10 20.4 44.4 0.0 NNE 0.0 NW 0.0
06:15 20.3 46.5 0.0 S 1.1 S 0.0
06:20 20.3 46.8 0.5 NNE 3.5 N 0.0
06:25 20.6 45.4 1.1 N 3.9 NNE 0.0
06:30 20.7 46.3 0.3 S 2.1 S 0.0
06:35 21.1 43.4 0.0 W 1.1 W 0.0
06:40 21.7 44.6 1.2 NE 3.2 NE 0.0
06:45 22.6 40.2 2.1 NNE 3.5 NE 0.0
Máxima 22.6 52.4 2.1 NNE 4.2 NNW 0.0
Mínima 19.1 40.2
Total 0.0